Time;durP1;ratioP1;P1;durP2;ratioP2;P2;SDS_P1;SDS_P2;PMS_P1;PMS_P2;Temp;Humidity;BMP_temperature;BMP_pressure;BME280_temperature;BME280_humidity;BME280_pressure;Samples;Min_cycle;Max_cycle;Signal;HPM_P1;HPM_P2
2023/05/20 00:00:19;;;;;;;;;;;20.90;92.60;;;;;;5091694;27;42921;-79
2023/05/20 00:02:44;;;;;;;;;;;20.90;92.50;;;;;;5103098;27;43223;-78
2023/05/20 00:05:10;;;;;;;;;;;20.90;92.50;;;;;;5096572;27;43177;-79
2023/05/20 00:07:35;;;;;;;;;;;21.00;92.60;;;;;;5096205;27;43023;-79
2023/05/20 00:10:01;;;;;;;;;;;20.80;92.50;;;;;;5104646;27;42888;-78
2023/05/20 00:12:26;;;;;;;;;;;20.90;92.50;;;;;;5092101;27;42844;-78
2023/05/20 00:14:52;;;;;;;;;;;20.80;92.60;;;;;;5090106;27;43081;-79
2023/05/20 00:17:18;;;;;;;;;;;20.80;92.60;;;;;;5091732;27;43623;-80
2023/05/20 00:19:43;;;;;;;;;;;20.90;92.60;;;;;;5089633;27;43090;-79
2023/05/20 00:22:09;;;;;;;;;;;20.90;92.60;;;;;;5092036;27;43479;-80
2023/05/20 00:24:35;;;;;;;;;;;20.80;92.60;;;;;;5084677;27;42905;-79
2023/05/20 00:27:01;;;;;;;;;;;21.00;92.70;;;;;;5084412;27;43534;-80
2023/05/20 00:29:27;;;;;;;;;;;20.90;92.70;;;;;;5102647;27;42997;-79
2023/05/20 00:31:53;;;;;;;;;;;20.80;92.60;;;;;;5103940;27;44457;-78
2023/05/20 00:34:19;;;;;;;;;;;21.00;92.80;;;;;;5089998;27;42984;-79
2023/05/20 00:36:44;;;;;;;;;;;20.90;92.80;;;;;;5090620;27;43494;-80
2023/05/20 00:39:10;;;;;;;;;;;21.00;92.80;;;;;;5097651;27;42929;-80
2023/05/20 00:41:37;;;;;;;;;;;20.90;92.80;;;;;;5084577;27;43773;-80
2023/05/20 00:44:02;;;;;;;;;;;20.80;92.80;;;;;;5084706;27;42920;-79
2023/05/20 00:46:28;;;;;;;;;;;21.00;92.90;;;;;;5084363;27;42879;-80
2023/05/20 00:48:54;;;;;;;;;;;21.00;92.90;;;;;;5084442;27;43168;-78
2023/05/20 00:51:20;;;;;;;;;;;20.70;92.90;;;;;;5084459;27;43574;-79
2023/05/20 00:53:46;;;;;;;;;;;20.90;92.90;;;;;;5071896;27;42997;-79
2023/05/20 00:56:12;;;;;;;;;;;20.70;92.90;;;;;;5093441;27;43089;-80
2023/05/20 00:58:38;;;;;;;;;;;20.90;93.00;;;;;;5088474;27;42971;-80
2023/05/20 01:01:04;;;;;;;;;;;20.90;93.10;;;;;;5088558;27;43052;-79
2023/05/20 01:03:30;;;;;;;;;;;20.90;93.10;;;;;;5102916;27;42933;-79
2023/05/20 01:05:56;;;;;;;;;;;20.80;93.00;;;;;;5105813;27;43547;-79
2023/05/20 01:08:22;;;;;;;;;;;21.00;93.20;;;;;;5105976;27;42767;-80
2023/05/20 01:10:50;;;;;;;;;;;20.90;93.10;;;;;;5107489;27;43689;-78
2023/05/20 01:13:18;;;;;;;;;;;20.90;93.20;;;;;;5087391;27;42894;-80
2023/05/20 01:15:45;;;;;;;;;;;20.70;93.10;;;;;;5086876;27;43411;-80
2023/05/20 01:18:15;;;;;;;;;;;20.90;93.10;;;;;;5106179;27;43435;-80
2023/05/20 01:20:40;;;;;;;;;;;20.90;93.10;;;;;;5092856;27;44514;-79
2023/05/20 01:23:06;;;;;;;;;;;20.90;93.10;;;;;;5087404;27;42956;-80
2023/05/20 01:25:32;;;;;;;;;;;20.90;93.10;;;;;;5086784;27;44463;-80
2023/05/20 01:27:57;;;;;;;;;;;20.90;93.10;;;;;;5087674;27;43008;-79
2023/05/20 01:30:27;;;;;;;;;;;20.90;93.20;;;;;;5087427;27;42960;-80
2023/05/20 01:33:05;;;;;;;;;;;20.90;93.10;;;;;;5094771;27;42973;-81
2023/05/20 01:35:31;;;;;;;;;;;21.00;92.50;;;;;;5074916;27;43763;-81
2023/05/20 01:37:57;;;;;;;;;;;20.90;93.10;;;;;;5106603;27;43093;-79
2023/05/20 01:40:23;;;;;;;;;;;20.90;93.10;;;;;;5090822;27;43829;-80
2023/05/20 01:42:51;;;;;;;;;;;21.00;93.10;;;;;;5086312;27;42756;-80
2023/05/20 01:45:17;;;;;;;;;;;20.90;93.20;;;;;;5100208;27;43089;-79
2023/05/20 01:47:46;;;;;;;;;;;21.00;93.20;;;;;;5086747;27;43171;-79
2023/05/20 01:50:11;;;;;;;;;;;20.70;90.20;;;;;;5086661;27;43475;-79
2023/05/20 01:52:37;;;;;;;;;;;20.90;92.50;;;;;;5086456;27;43110;-80
2023/05/20 01:55:02;;;;;;;;;;;21.00;93.40;;;;;;5085805;27;42939;-80
2023/05/20 01:57:28;;;;;;;;;;;21.00;93.30;;;;;;5085802;27;42907;-78
2023/05/20 01:59:53;;;;;;;;;;;20.90;93.20;;;;;;5087058;27;42922;-78
2023/05/20 02:02:19;;;;;;;;;;;21.00;93.20;;;;;;5087246;27;42970;-80
2023/05/20 02:04:48;;;;;;;;;;;21.00;93.30;;;;;;5085578;27;43210;-80
2023/05/20 02:07:14;;;;;;;;;;;21.00;93.30;;;;;;5095282;27;42877;-79
2023/05/20 02:09:39;;;;;;;;;;;20.90;93.30;;;;;;5103443;27;43475;-79
2023/05/20 02:12:05;;;;;;;;;;;20.80;93.30;;;;;;5086533;27;43034;-80
2023/05/20 02:14:31;;;;;;;;;;;21.10;93.40;;;;;;5100936;27;43097;-79
2023/05/20 02:16:56;;;;;;;;;;;20.90;93.40;;;;;;5106178;27;43009;-79
2023/05/20 02:19:22;;;;;;;;;;;20.90;93.50;;;;;;5102483;27;43461;-79
2023/05/20 02:21:48;;;;;;;;;;;21.00;93.40;;;;;;5106006;27;42938;-80
2023/05/20 02:24:14;;;;;;;;;;;20.80;93.40;;;;;;5104506;27;43559;-79
2023/05/20 02:26:40;;;;;;;;;;;21.10;93.50;;;;;;5105884;27;42988;-79
2023/05/20 02:29:05;;;;;;;;;;;21.00;93.50;;;;;;5101258;27;43278;-79
2023/05/20 02:31:31;;;;;;;;;;;21.00;93.50;;;;;;5086582;27;42860;-80
2023/05/20 02:33:56;;;;;;;;;;;20.90;93.50;;;;;;5086393;27;43390;-79
2023/05/20 02:36:22;;;;;;;;;;;20.80;93.50;;;;;;5068496;28;42963;-79
2023/05/20 02:38:47;;;;;;;;;;;20.80;93.40;;;;;;5100367;27;42990;-79
2023/05/20 02:41:13;;;;;;;;;;;20.90;93.50;;;;;;5097250;27;42882;-79
2023/05/20 02:43:39;;;;;;;;;;;21.00;93.70;;;;;;5084858;27;43111;-80
2023/05/20 02:46:05;;;;;;;;;;;20.90;93.70;;;;;;5093777;27;43011;-79
2023/05/20 02:48:30;;;;;;;;;;;21.00;93.70;;;;;;5101892;27;42872;-80
2023/05/20 02:50:57;;;;;;;;;;;20.80;93.70;;;;;;5093430;27;43130;-79
2023/05/20 02:53:23;;;;;;;;;;;20.90;93.70;;;;;;5100429;27;42984;-80
2023/05/20 02:55:48;;;;;;;;;;;20.90;93.60;;;;;;5084012;27;43045;-79
2023/05/20 02:58:14;;;;;;;;;;;20.90;93.60;;;;;;5084601;27;43463;-80
2023/05/20 03:00:40;;;;;;;;;;;21.00;93.60;;;;;;5085974;27;42958;-80
2023/05/20 03:03:06;;;;;;;;;;;21.00;93.60;;;;;;5099004;27;43135;-79
2023/05/20 03:05:32;;;;;;;;;;;21.00;93.70;;;;;;5096700;27;42984;-80
2023/05/20 03:07:58;;;;;;;;;;;21.00;93.60;;;;;;5081944;27;42968;-79
2023/05/20 03:10:23;;;;;;;;;;;21.00;93.50;;;;;;5096451;27;42899;-80
2023/05/20 03:12:49;;;;;;;;;;;20.90;93.60;;;;;;5086207;27;43273;-80
2023/05/20 03:15:14;;;;;;;;;;;20.80;93.50;;;;;;5104666;27;42957;-79
2023/05/20 03:17:40;;;;;;;;;;;20.90;93.50;;;;;;5088518;27;43354;-80
2023/05/20 03:20:06;;;;;;;;;;;20.90;93.40;;;;;;5084490;27;43147;-80
2023/05/20 03:22:31;;;;;;;;;;;21.20;92.90;;;;;;5085417;27;43032;-80
2023/05/20 03:24:59;;;;;;;;;;;20.90;93.40;;;;;;5083988;27;43099;-80
2023/05/20 03:27:26;;;;;;;;;;;20.80;93.40;;;;;;5084620;27;44456;-79
2023/05/20 03:29:54;;;;;;;;;;;21.00;93.50;;;;;;5084954;27;43474;-80
2023/05/20 03:32:20;;;;;;;;;;;20.90;93.50;;;;;;5084793;27;43715;-80
2023/05/20 03:34:45;;;;;;;;;;;20.90;93.50;;;;;;5084867;27;43073;-80
2023/05/20 03:37:11;;;;;;;;;;;20.90;93.50;;;;;;5083966;27;43647;-80
2023/05/20 03:39:36;;;;;;;;;;;20.90;93.60;;;;;;5084744;27;43016;-79
2023/05/20 03:42:02;;;;;;;;;;;20.90;93.50;;;;;;5066287;27;43419;-80
2023/05/20 03:44:28;;;;;;;;;;;;;;;;;;5083889;27;42991;-80
2023/05/20 03:46:53;;;;;;;;;;;20.90;93.50;;;;;;5099077;27;43680;-80
2023/05/20 03:49:19;;;;;;;;;;;;;;;;;;5094591;27;42930;-79
2023/05/20 03:51:44;;;;;;;;;;;20.90;93.60;;;;;;5083468;27;42990;-80
2023/05/20 03:54:10;;;;;;;;;;;20.80;93.50;;;;;;5083263;27;42962;-80
2023/05/20 03:56:36;;;;;;;;;;;21.00;93.50;;;;;;5083958;27;44046;-78
2023/05/20 03:59:02;;;;;;;;;;;20.90;93.60;;;;;;5097449;27;43006;-85
2023/05/20 04:01:27;;;;;;;;;;;20.90;93.70;;;;;;5100220;27;42993;-85
2023/05/20 04:03:53;;;;;;;;;;;21.10;93.70;;;;;;5083983;27;42933;-85
2023/05/20 04:06:18;;;;;;;;;;;21.00;93.60;;;;;;5086780;27;43584;-84
2023/05/20 04:08:44;;;;;;;;;;;20.80;93.60;;;;;;5093496;27;42952;-84
2023/05/20 04:11:10;;;;;;;;;;;20.90;93.60;;;;;;5098591;27;43803;-85
2023/05/20 04:13:35;;;;;;;;;;;20.90;93.60;;;;;;5065362;28;42923;-86
2023/05/20 04:16:01;;;;;;;;;;;21.00;93.80;;;;;;5084302;27;42940;-84
2023/05/20 04:18:30;;;;;;;;;;;20.90;93.60;;;;;;5092757;27;43262;-86
2023/05/20 04:20:56;;;;;;;;;;;20.90;93.60;;;;;;5088511;27;42860;-86
2023/05/20 04:23:22;;;;;;;;;;;20.90;93.60;;;;;;5084575;27;42903;-86
2023/05/20 04:25:47;;;;;;;;;;;20.90;93.60;;;;;;5084328;27;43561;-86
2023/05/20 04:28:15;;;;;;;;;;;20.90;93.60;;;;;;5084254;27;43186;-87
2023/05/20 04:30:41;;;;;;;;;;;21.00;93.50;;;;;;5097764;27;43489;-85
2023/05/20 04:33:06;;;;;;;;;;;20.80;93.50;;;;;;5099331;27;42918;-86
2023/05/20 04:35:33;;;;;;;;;;;21.00;93.50;;;;;;5087734;27;43042;-86
2023/05/20 04:37:59;;;;;;;;;;;21.00;93.70;;;;;;5095078;27;43110;-85
2023/05/20 04:40:26;;;;;;;;;;;20.90;93.70;;;;;;5093720;27;43037;-85
2023/05/20 04:42:51;;;;;;;;;;;20.90;93.60;;;;;;5069320;28;44082;-85
2023/05/20 04:45:17;;;;;;;;;;;21.00;93.60;;;;;;5087231;27;43890;-85
2023/05/20 04:47:44;;;;;;;;;;;20.80;93.50;;;;;;5086474;27;42971;-86
2023/05/20 04:50:10;;;;;;;;;;;21.00;93.60;;;;;;5089045;27;43404;-84
2023/05/20 04:52:36;;;;;;;;;;;;;;;;;;5096396;27;42997;-87
2023/05/20 04:55:02;;;;;;;;;;;20.90;93.70;;;;;;5091073;27;43552;-86
2023/05/20 04:57:28;;;;;;;;;;;;;;;;;;5096297;27;42933;-85
2023/05/20 04:59:57;;;;;;;;;;;;;;;;;;5092558;27;44284;-86
2023/05/20 05:02:23;;;;;;;;;;;20.90;93.70;;;;;;5093609;27;43195;-84
2023/05/20 05:04:49;;;;;;;;;;;20.90;93.60;;;;;;5069092;27;44519;-85
2023/05/20 05:07:14;;;;;;;;;;;21.00;93.60;;;;;;5094927;27;43304;-85
2023/05/20 05:09:40;;;;;;;;;;;20.90;93.40;;;;;;5090341;27;43656;-84
2023/05/20 05:12:06;;;;;;;;;;;20.90;93.30;;;;;;5096643;27;42893;-83
2023/05/20 05:14:31;;;;;;;;;;;20.80;93.30;;;;;;5093048;27;42844;-82
2023/05/20 05:16:56;;;;;;;;;;;21.00;80.00;;;;;;5106523;27;43108;-86
2023/05/20 05:19:22;;;;;;;;;;;21.30;91.40;;;;;;5106646;27;43464;-85
2023/05/20 05:21:47;;;;;;;;;;;20.80;76.70;;;;;;5104612;27;43886;-87
2023/05/20 05:24:13;;;;;;;;;;;21.00;77.20;;;;;;5091111;27;43495;-86
2023/05/20 05:26:39;;;;;;;;;;;21.00;92.00;;;;;;5096973;27;43285;-85
2023/05/20 05:29:04;;;;;;;;;;;20.90;75.70;;;;;;5097050;27;43004;-86
2023/05/20 05:31:30;;;;;;;;;;;21.00;74.90;;;;;;5091546;27;43436;-81
2023/05/20 05:33:55;;;;;;;;;;;21.10;75.10;;;;;;5086287;27;43786;-85
2023/05/20 05:36:22;;;;;;;;;;;20.80;93.60;;;;;;5095903;27;43099;-87
2023/05/20 05:38:48;;;;;;;;;;;21.10;75.90;;;;;;5105401;27;43109;-84
2023/05/20 05:41:13;;;;;;;;;;;20.90;75.10;;;;;;5076413;28;43367;-86
2023/05/20 05:43:39;;;;;;;;;;;21.20;74.50;;;;;;5101289;27;43035;-81
2023/05/20 05:46:05;;;;;;;;;;;20.90;74.90;;;;;;5089269;27;43118;-87
2023/05/20 05:48:30;;;;;;;;;;;21.00;75.50;;;;;;5103278;27;42946;-81
2023/05/20 05:50:56;;;;;;;;;;;20.90;75.30;;;;;;5105555;27;43023;-76
2023/05/20 05:53:22;;;;;;;;;;;20.90;81.60;;;;;;5104966;27;42960;-79
2023/05/20 05:55:47;;;;;;;;;;;20.90;76.90;;;;;;5107057;27;42992;-86
2023/05/20 05:58:13;;;;;;;;;;;21.00;76.70;;;;;;5106733;27;43803;-80
2023/05/20 06:00:38;;;;;;;;;;;21.00;77.10;;;;;;5092791;27;42953;-87
2023/05/20 06:03:04;;;;;;;;;;;20.90;75.90;;;;;;5087480;27;42894;-87
2023/05/20 06:05:30;;;;;;;;;;;20.80;75.50;;;;;;5091466;27;43992;-87
2023/05/20 06:07:55;;;;;;;;;;;20.80;75.50;;;;;;5097600;27;43931;-79
2023/05/20 06:10:21;;;;;;;;;;;21.00;75.80;;;;;;5093158;27;43077;-84
2023/05/20 06:12:46;;;;;;;;;;;20.90;74.90;;;;;;5086414;27;43421;-81
2023/05/20 06:15:12;;;;;;;;;;;21.00;74.50;;;;;;5095328;27;43081;-81
2023/05/20 06:17:38;;;;;;;;;;;20.90;74.30;;;;;;5090628;27;43032;-82
2023/05/20 06:20:03;;;;;;;;;;;21.00;74.10;;;;;;5104087;27;43673;-82
2023/05/20 06:22:29;;;;;;;;;;;20.90;73.10;;;;;;5103415;27;43057;-81
2023/05/20 06:24:55;;;;;;;;;;;20.90;73.80;;;;;;5096288;27;43416;-79
2023/05/20 06:27:21;;;;;;;;;;;20.70;73.60;;;;;;5093863;27;43057;-79
2023/05/20 06:29:46;;;;;;;;;;;21.00;73.90;;;;;;5090192;27;42929;-82
2023/05/20 06:32:12;;;;;;;;;;;20.80;73.90;;;;;;5092568;27;44487;-80
2023/05/20 06:34:37;;;;;;;;;;;20.80;74.20;;;;;;5094139;27;43852;-81
2023/05/20 06:37:03;;;;;;;;;;;21.00;74.10;;;;;;5100636;27;43160;-78
2023/05/20 06:39:28;;;;;;;;;;;20.90;73.30;;;;;;5098488;27;43734;-77
2023/05/20 06:41:54;;;;;;;;;;;20.90;74.00;;;;;;5096127;27;42893;-79
2023/05/20 06:44:19;;;;;;;;;;;21.10;74.00;;;;;;5099086;27;43580;-78
2023/05/20 06:46:45;;;;;;;;;;;20.80;73.70;;;;;;5098078;27;43759;-80
2023/05/20 06:49:10;;;;;;;;;;;21.00;74.00;;;;;;5078396;27;43764;-77
2023/05/20 06:51:36;;;;;;;;;;;21.00;73.80;;;;;;5098190;27;43037;-87
2023/05/20 06:54:01;;;;;;;;;;;21.40;74.20;;;;;;5114750;27;43042;-86
2023/05/20 06:56:27;;;;;;;;;;;20.90;73.70;;;;;;5118463;27;43828;-84
2023/05/20 06:58:53;;;;;;;;;;;21.10;74.60;;;;;;5092880;27;42807;-86
2023/05/20 07:01:19;;;;;;;;;;;20.90;74.30;;;;;;5102221;27;43219;-90
2023/05/20 07:03:45;;;;;;;;;;;21.00;74.50;;;;;;5090967;27;43233;-86
2023/05/20 07:06:10;;;;;;;;;;;21.20;74.30;;;;;;5100429;27;43524;-87
2023/05/20 07:08:36;;;;;;;;;;;20.90;74.00;;;;;;5096147;27;42926;-88
2023/05/20 07:11:01;;;;;;;;;;;21.00;73.70;;;;;;5110973;27;44037;-90
2023/05/20 07:13:27;;;;;;;;;;;21.00;73.80;;;;;;5102515;27;42986;-90
2023/05/20 07:15:52;;;;;;;;;;;20.90;73.60;;;;;;5100179;27;42950;-81
2023/05/20 07:18:18;;;;;;;;;;;21.00;74.20;;;;;;5097024;27;42949;-76
2023/05/20 07:20:43;;;;;;;;;;;21.00;74.30;;;;;;5093816;27;43896;-78
2023/05/20 07:23:09;;;;;;;;;;;20.90;73.70;;;;;;5097839;27;42977;-78
2023/05/20 07:25:34;;;;;;;;;;;20.90;73.40;;;;;;5098539;27;43969;-78
2023/05/20 07:28:00;;;;;;;;;;;21.00;73.80;;;;;;5114180;27;42933;-76
2023/05/20 07:30:26;;;;;;;;;;;21.00;73.90;;;;;;5087088;27;43050;-76
2023/05/20 07:32:51;;;;;;;;;;;20.80;73.50;;;;;;5091705;27;43011;-76
2023/05/20 07:35:17;;;;;;;;;;;21.00;74.00;;;;;;5092408;27;43165;-76
2023/05/20 07:37:42;;;;;;;;;;;20.70;73.70;;;;;;5105007;27;42969;-77
2023/05/20 07:40:08;;;;;;;;;;;20.80;73.70;;;;;;5101937;27;42875;-79
2023/05/20 07:42:34;;;;;;;;;;;21.00;73.50;;;;;;5091695;27;42755;-79
2023/05/20 07:44:59;;;;;;;;;;;20.80;73.80;;;;;;5100944;27;43410;-79
2023/05/20 07:47:25;;;;;;;;;;;20.90;74.00;;;;;;5088069;27;42981;-78
2023/05/20 07:49:50;;;;;;;;;;;20.90;73.90;;;;;;5099808;27;43919;-77
2023/05/20 07:52:16;;;;;;;;;;;21.00;73.80;;;;;;5102206;27;43067;-79
2023/05/20 07:54:42;;;;;;;;;;;20.90;73.50;;;;;;5088405;27;43886;-76
2023/05/20 07:57:07;;;;;;;;;;;21.00;74.10;;;;;;5095235;27;43024;-79
2023/05/20 07:59:33;;;;;;;;;;;21.00;74.00;;;;;;5101588;27;42964;-78
2023/05/20 08:01:58;;;;;;;;;;;21.00;74.00;;;;;;5102493;27;42970;-78
2023/05/20 08:04:25;;;;;;;;;;;20.80;73.60;;;;;;5099696;27;43040;-77
2023/05/20 08:06:51;;;;;;;;;;;20.90;74.10;;;;;;5082645;27;42950;-78
2023/05/20 08:09:17;;;;;;;;;;;21.00;74.50;;;;;;5093445;27;43139;-79
2023/05/20 08:11:42;;;;;;;;;;;21.00;74.40;;;;;;5089817;27;42934;-80
2023/05/20 08:14:08;;;;;;;;;;;20.80;74.30;;;;;;5086391;27;42920;-79
2023/05/20 08:16:34;;;;;;;;;;;20.90;74.70;;;;;;5096380;27;43234;-86
2023/05/20 08:19:00;;;;;;;;;;;20.80;74.20;;;;;;5110018;27;43021;-95
2023/05/20 08:21:25;;;;;;;;;;;21.00;72.80;;;;;;5113898;27;42792;-86
2023/05/20 08:23:51;;;;;;;;;;;21.40;72.60;;;;;;5104111;27;43671;-92
2023/05/20 08:26:16;;;;;;;;;;;20.90;72.50;;;;;;5089744;27;42319;-83
2023/05/20 08:28:42;;;;;;;;;;;19.30;71.60;;;;;;5099346;27;43539;-79
2023/05/20 08:31:08;;;;;;;;;;;21.00;72.70;;;;;;5103828;27;43088;-88
2023/05/20 08:33:34;;;;;;;;;;;20.90;72.70;;;;;;5092999;27;44107;-91
2023/05/20 08:35:59;;;;;;;;;;;20.90;72.30;;;;;;5095517;27;43120;-87
2023/05/20 08:38:25;;;;;;;;;;;21.00;72.90;;;;;;5090229;27;43030;-81
2023/05/20 08:40:52;;;;;;;;;;;21.20;73.30;;;;;;5096824;27;42942;-78
2023/05/20 08:43:18;;;;;;;;;;;21.00;73.20;;;;;;5090280;27;43638;-77
2023/05/20 08:45:43;;;;;;;;;;;20.90;73.70;;;;;;5101825;27;43365;-78
2023/05/20 08:48:09;;;;;;;;;;;21.10;73.60;;;;;;5097100;27;44231;-80
2023/05/20 08:50:35;;;;;;;;;;;21.00;74.10;;;;;;5095767;27;42966;-77
2023/05/20 08:53:00;;;;;;;;;;;21.00;74.30;;;;;;5098339;27;43377;-77
2023/05/20 08:55:35;;;;;;;;;;;20.90;74.50;;;;;;5097141;27;42880;-77
2023/05/20 08:58:01;;;;;;;;;;;20.90;72.20;;;;;;5088786;27;43220;-76
2023/05/20 09:00:27;;;;;;;;;;;21.00;74.60;;;;;;5107998;27;43036;-78
2023/05/20 09:02:53;;;;;;;;;;;21.00;74.50;;;;;;5098601;27;43163;-78
2023/05/20 09:05:20;;;;;;;;;;;21.10;75.10;;;;;;5097069;27;43241;-77
2023/05/20 09:07:45;;;;;;;;;;;21.10;75.00;;;;;;5102648;27;43591;-77
2023/05/20 09:10:11;;;;;;;;;;;20.70;74.90;;;;;;5100878;27;43056;-76
2023/05/20 09:12:39;;;;;;;;;;;21.00;75.10;;;;;;5094923;27;43540;-77
2023/05/20 09:15:05;;;;;;;;;;;21.00;72.30;;;;;;5091204;27;42967;-76
2023/05/20 09:17:31;;;;;;;;;;;20.90;74.20;;;;;;5093900;27;44491;-76
2023/05/20 09:19:57;;;;;;;;;;;20.90;83.80;;;;;;5079532;27;43066;-75
2023/05/20 09:22:24;;;;;;;;;;;20.90;79.70;;;;;;5099758;27;43702;-75
2023/05/20 09:24:50;;;;;;;;;;;20.50;83.50;;;;;;5079312;28;42900;-74
2023/05/20 09:27:16;;;;;;;;;;;21.10;84.10;;;;;;5093195;27;43384;-77
2023/05/20 09:29:42;;;;;;;;;;;21.60;82.30;;;;;;5088992;27;44514;-78
2023/05/20 09:32:12;;;;;;;;;;;21.20;79.40;;;;;;5088892;27;44522;-77
2023/05/20 09:34:38;;;;;;;;;;;20.80;75.70;;;;;;5098094;27;43599;-76
2023/05/20 09:37:06;;;;;;;;;;;20.90;77.00;;;;;;5093664;27;43657;-77
2023/05/20 09:39:35;;;;;;;;;;;21.00;75.90;;;;;;5097431;27;42950;-77
2023/05/20 09:42:05;;;;;;;;;;;20.90;75.60;;;;;;5098559;27;44274;-77
2023/05/20 09:44:32;;;;;;;;;;;20.70;75.50;;;;;;5099723;27;43164;-77
2023/05/20 09:46:58;;;;;;;;;;;21.00;75.70;;;;;;5099181;27;43164;-77
2023/05/20 09:49:24;;;;;;;;;;;21.00;75.40;;;;;;5089227;27;43051;-76
2023/05/20 09:51:50;;;;;;;;;;;20.90;75.20;;;;;;5090100;27;43496;-78
2023/05/20 09:54:18;;;;;;;;;;;21.00;75.10;;;;;;5090782;27;43165;-78
2023/05/20 09:56:44;;;;;;;;;;;20.90;74.60;;;;;;5097337;27;43092;-77
2023/05/20 09:59:10;;;;;;;;;;;21.00;74.60;;;;;;5099668;27;43180;-77
2023/05/20 10:01:35;;;;;;;;;;;21.00;74.50;;;;;;5095853;27;43457;-77
2023/05/20 10:04:03;;;;;;;;;;;20.90;74.30;;;;;;5097125;27;43008;-77
2023/05/20 10:06:35;;;;;;;;;;;20.90;74.60;;;;;;5099754;27;43070;-78
2023/05/20 10:09:08;;;;;;;;;;;21.00;72.70;;;;;;5092941;27;43084;-77
2023/05/20 10:11:42;;;;;;;;;;;20.70;74.60;;;;;;5094697;27;43809;-76
2023/05/20 10:14:23;;;;;;;;;;;20.90;72.50;;;;;;5098716;27;44004;-93
2023/05/20 10:17:08;;;;;;;;;;;20.80;72.40;;;;;;5095603;27;43592;-89
2023/05/20 10:19:35;;;;;;;;;;;21.00;72.50;;;;;;5092293;27;43012;-91
2023/05/20 10:22:01;;;;;;;;;;;20.90;75.10;;;;;;5088926;27;44028;-87
2023/05/20 10:24:31;;;;;;;;;;;20.80;74.70;;;;;;5096145;27;42866;-87
2023/05/20 10:26:57;;;;;;;;;;;20.90;72.80;;;;;;5087913;27;43946;-85
2023/05/20 10:29:22;;;;;;;;;;;20.70;74.60;;;;;;5097940;27;43292;-93
2023/05/20 10:31:49;;;;;;;;;;;20.80;74.50;;;;;;5086686;27;43017;-83
2023/05/20 10:34:18;;;;;;;;;;;21.00;74.60;;;;;;5099608;27;43181;-83
2023/05/20 10:36:44;;;;;;;;;;;20.50;74.40;;;;;;5090469;27;43433;-81
2023/05/20 10:39:14;;;;;;;;;;;20.80;74.60;;;;;;5088195;27;42965;-80
2023/05/20 10:41:40;;;;;;;;;;;20.70;74.20;;;;;;5094478;27;44091;-80
2023/05/20 10:44:05;;;;;;;;;;;20.30;72.90;;;;;;5090493;27;43214;-80
2023/05/20 10:46:32;;;;;;;;;;;20.50;74.00;;;;;;5088017;27;43803;-79
2023/05/20 10:48:58;;;;;;;;;;;20.50;73.80;;;;;;5084701;27;42903;-80
2023/05/20 10:51:24;;;;;;;;;;;20.60;73.90;;;;;;5090619;27;43716;-80
2023/05/20 10:53:54;;;;;;;;;;;20.40;73.80;;;;;;5091690;27;43178;-84
2023/05/20 10:56:21;;;;;;;;;;;20.50;71.80;;;;;;5100105;27;43080;-84
2023/05/20 10:58:46;;;;;;;;;;;20.80;73.70;;;;;;5083974;27;42946;-81
2023/05/20 11:01:12;;;;;;;;;;;21.30;74.10;;;;;;5087761;27;43220;-78
2023/05/20 11:03:39;;;;;;;;;;;20.70;74.10;;;;;;5093376;27;43223;-78
2023/05/20 11:06:12;;;;;;;;;;;20.70;74.00;;;;;;5101043;27;43755;-78
2023/05/20 11:08:37;;;;;;;;;;;20.70;72.40;;;;;;5094711;27;43013;-79
2023/05/20 11:11:03;;;;;;;;;;;20.60;74.20;;;;;;5086178;27;43386;-78
2023/05/20 11:13:29;;;;;;;;;;;20.40;73.90;;;;;;5095340;27;42996;-78
2023/05/20 11:15:55;;;;;;;;;;;20.40;74.00;;;;;;5085673;27;43128;-78
2023/05/20 11:18:21;;;;;;;;;;;20.60;74.80;;;;;;5094585;27;42997;-78
2023/05/20 11:20:46;;;;;;;;;;;20.50;75.20;;;;;;5090407;27;43318;-78
2023/05/20 11:23:13;;;;;;;;;;;20.50;75.50;;;;;;5085996;27;43842;-77
2023/05/20 11:25:40;;;;;;;;;;;20.40;75.40;;;;;;5089217;27;63744;-79
2023/05/20 11:28:11;;;;;;;;;;;20.30;75.40;;;;;;5095801;27;42917;-79
2023/05/20 11:30:37;;;;;;;;;;;20.40;73.20;;;;;;5100682;27;43243;-79
2023/05/20 11:33:03;;;;;;;;;;;20.50;76.30;;;;;;5095321;27;42763;-78
2023/05/20 11:35:30;;;;;;;;;;;20.50;75.70;;;;;;5087510;27;43452;-78
2023/05/20 11:38:02;;;;;;;;;;;20.50;75.90;;;;;;5085361;27;42895;-78
2023/05/20 11:40:27;;;;;;;;;;;20.50;74.10;;;;;;5095314;27;43588;-79
2023/05/20 11:42:57;;;;;;;;;;;20.40;76.80;;;;;;5097691;27;42985;-79
2023/05/20 11:45:23;;;;;;;;;;;20.30;75.10;;;;;;5094727;27;44384;-78
2023/05/20 11:48:01;;;;;;;;;;;20.30;77.10;;;;;;5085617;27;42973;-80
2023/05/20 11:50:27;;;;;;;;;;;20.30;75.70;;;;;;5085392;27;43585;-81
2023/05/20 11:52:59;;;;;;;;;;;20.50;78.00;;;;;;5088621;27;42997;-81
2023/05/20 11:55:25;;;;;;;;;;;20.40;75.90;;;;;;5095686;27;43440;-88
2023/05/20 11:57:51;;;;;;;;;;;20.30;77.90;;;;;;5086060;27;42925;-87
2023/05/20 12:00:16;;;;;;;;;;;20.40;77.70;;;;;;5104834;27;43536;-87
2023/05/20 12:02:42;;;;;;;;;;;20.50;77.00;;;;;;5105205;27;43202;-87
2023/05/20 12:05:08;;;;;;;;;;;20.60;77.80;;;;;;5096913;27;44103;-89
2023/05/20 12:07:33;;;;;;;;;;;20.30;77.60;;;;;;5097670;27;42941;-89
2023/05/20 12:10:00;;;;;;;;;;;20.30;78.10;;;;;;5086201;27;42918;-81
2023/05/20 12:12:26;;;;;;;;;;;20.30;77.80;;;;;;5086860;27;43092;-81
2023/05/20 12:14:51;;;;;;;;;;;20.30;77.60;;;;;;5085634;27;42951;-82
2023/05/20 12:17:17;;;;;;;;;;;20.50;77.70;;;;;;5097837;27;43068;-81
2023/05/20 12:19:42;;;;;;;;;;;20.30;77.60;;;;;;5102392;27;43008;-81
2023/05/20 12:22:08;;;;;;;;;;;20.40;77.60;;;;;;5097704;27;43108;-81
2023/05/20 12:24:33;;;;;;;;;;;20.30;78.00;;;;;;5085271;27;43094;-82
2023/05/20 12:26:59;;;;;;;;;;;20.30;77.90;;;;;;5086165;27;42900;-82
2023/05/20 12:29:24;;;;;;;;;;;20.30;77.80;;;;;;5084562;27;43121;-82
2023/05/20 12:31:50;;;;;;;;;;;20.20;77.60;;;;;;5089062;27;43054;-82
2023/05/20 12:34:15;;;;;;;;;;;20.40;77.50;;;;;;5102005;27;42985;-82
2023/05/20 12:36:41;;;;;;;;;;;20.50;77.50;;;;;;5087702;27;43010;-82
2023/05/20 12:39:08;;;;;;;;;;;20.20;77.30;;;;;;5086792;27;43485;-82
2023/05/20 12:41:33;;;;;;;;;;;20.50;77.40;;;;;;5088010;27;42950;-81
2023/05/20 12:43:59;;;;;;;;;;;20.30;76.80;;;;;;5087898;27;43037;-82
2023/05/20 12:46:24;;;;;;;;;;;20.40;76.70;;;;;;5099868;27;43034;-79
2023/05/20 12:48:50;;;;;;;;;;;20.40;76.50;;;;;;5088262;27;44541;-79
2023/05/20 12:51:15;;;;;;;;;;;20.50;76.50;;;;;;5092167;27;43329;-78
2023/05/20 12:53:41;;;;;;;;;;;20.70;77.20;;;;;;5089942;27;43818;-81
2023/05/20 12:56:06;;;;;;;;;;;20.30;77.10;;;;;;5101812;27;43064;-76
2023/05/20 12:58:32;;;;;;;;;;;20.40;77.30;;;;;;5101592;27;43110;-78
2023/05/20 13:00:57;;;;;;;;;;;20.50;77.40;;;;;;5099990;27;42996;-77
2023/05/20 13:03:23;;;;;;;;;;;20.40;77.30;;;;;;5100914;27;43704;-75
2023/05/20 13:05:48;;;;;;;;;;;20.60;77.70;;;;;;5098480;27;43054;-77
2023/05/20 13:08:14;;;;;;;;;;;20.40;78.00;;;;;;5094240;27;43009;-78
2023/05/20 13:10:39;;;;;;;;;;;20.60;77.70;;;;;;5105057;27;42997;-78
2023/05/20 13:13:05;;;;;;;;;;;20.50;77.40;;;;;;5107053;27;43039;-76
2023/05/20 13:15:34;;;;;;;;;;;20.30;77.30;;;;;;5101225;27;43022;-85
2023/05/20 13:18:04;;;;;;;;;;;20.60;76.60;;;;;;5090215;27;43890;-84
2023/05/20 13:20:30;;;;;;;;;;;20.60;75.90;;;;;;5086942;27;42993;-86
2023/05/20 13:22:55;;;;;;;;;;;20.60;77.50;;;;;;5082074;28;44090;-86
2023/05/20 13:25:21;;;;;;;;;;;20.80;78.50;;;;;;5086414;27;43043;-83
2023/05/20 13:27:46;;;;;;;;;;;20.60;77.40;;;;;;5087622;27;43589;-87
2023/05/20 13:30:12;;;;;;;;;;;20.50;77.60;;;;;;5087293;27;42999;-85
2023/05/20 13:32:37;;;;;;;;;;;20.60;77.90;;;;;;5098377;27;42978;-87
2023/05/20 13:35:03;;;;;;;;;;;20.70;77.80;;;;;;5095948;27;43075;-89
2023/05/20 13:37:29;;;;;;;;;;;20.60;78.00;;;;;;5086752;27;42867;-88
2023/05/20 13:39:54;;;;;;;;;;;20.60;78.20;;;;;;5100648;27;42877;-89
2023/05/20 13:42:20;;;;;;;;;;;20.40;78.40;;;;;;5098039;27;42965;-86
2023/05/20 13:44:45;;;;;;;;;;;20.60;79.10;;;;;;5087828;27;42895;-86
2023/05/20 13:47:11;;;;;;;;;;;20.50;79.60;;;;;;5094710;27;43256;-88
2023/05/20 13:49:36;;;;;;;;;;;20.50;79.90;;;;;;5097870;27;43019;-87
2023/05/20 13:52:02;;;;;;;;;;;20.60;79.90;;;;;;5099354;27;43980;-86
2023/05/20 13:54:27;;;;;;;;;;;20.40;78.90;;;;;;5105039;27;42981;-88
2023/05/20 13:56:53;;;;;;;;;;;21.10;80.20;;;;;;5107113;27;43094;-91
2023/05/20 13:59:19;;;;;;;;;;;20.60;79.50;;;;;;5092669;27;43004;-83
2023/05/20 14:01:45;;;;;;;;;;;20.60;79.00;;;;;;5112950;27;43182;-86
2023/05/20 14:04:11;;;;;;;;;;;20.70;78.20;;;;;;5094011;27;42937;-78
2023/05/20 14:06:37;;;;;;;;;;;20.40;77.70;;;;;;5105144;27;42830;-78
2023/05/20 14:09:02;;;;;;;;;;;20.60;77.50;;;;;;5103747;27;42841;-78
2023/05/20 14:11:28;;;;;;;;;;;20.60;77.10;;;;;;5093336;27;43496;-81